Time;durP1;ratioP1;P1;durP2;ratioP2;P2;SDS_P1;SDS_P2;PMS_P1;PMS_P2;Temp;Humidity;BMP_temperature;BMP_pressure;BME280_temperature;BME280_humidity;BME280_pressure;Samples;Min_cycle;Max_cycle;Signal;HPM_P1;HPM_P2
2022/06/02 00:00:59;;;;;;;11.25;10.05;;;9.50;99.90;;;;;;4830812;29;20250;-86
2022/06/02 00:03:34;;;;;;;9.88;8.40;;;9.50;99.90;;;;;;4842013;29;20510;-86
2022/06/02 00:06:21;;;;;;;11.00;9.38;;;9.50;99.90;;;;;;4820999;29;20046;-86
2022/06/02 00:09:01;;;;;;;9.55;7.80;;;9.50;99.90;;;;;;4814530;29;20145;-86
2022/06/02 00:11:51;;;;;;;11.02;8.73;;;9.50;99.90;;;;;;4836857;29;20072;-86
2022/06/02 00:14:51;;;;;;;11.90;9.75;;;9.50;99.90;;;;;;4809591;29;20047;-86
2022/06/02 00:17:40;;;;;;;10.10;9.02;;;9.50;99.90;;;;;;4827268;29;20107;-86
2022/06/02 00:20:41;;;;;;;10.07;8.68;;;9.50;99.90;;;;;;4815918;29;20048;-86
2022/06/02 00:23:28;;;;;;;8.52;6.75;;;9.40;99.90;;;;;;4827051;29;20057;-86
2022/06/02 00:26:15;;;;;;;10.20;8.70;;;9.40;99.90;;;;;;4826259;29;20510;-86
2022/06/02 00:28:53;;;;;;;10.75;7.57;;;9.50;99.90;;;;;;4831416;29;20046;-86
2022/06/02 00:31:37;;;;;;;11.30;9.18;;;9.40;99.90;;;;;;4814148;29;20133;-86
2022/06/02 00:34:24;;;;;;;10.63;8.85;;;9.40;99.90;;;;;;4816824;29;20042;-86
2022/06/02 00:36:55;;;;;;;9.30;8.05;;;9.40;99.90;;;;;;4841447;29;20037;-86
2022/06/02 00:39:21;;;;;;;10.00;8.63;;;9.30;99.90;;;;;;4842226;29;20402;-86
2022/06/02 00:42:33;;;;;;;9.43;8.00;;;9.20;99.90;;;;;;4827322;29;20053;-86
2022/06/02 00:45:20;;;;;;;8.68;7.65;;;9.20;99.90;;;;;;4804989;29;20085;-86
2022/06/02 00:47:57;;;;;;;9.68;7.68;;;9.30;99.90;;;;;;4825976;29;20038;-86
2022/06/02 00:50:37;;;;;;;10.02;7.57;;;9.30;99.90;;;;;;4839192;29;20547;-86
2022/06/02 00:53:28;;;;;;;11.43;10.07;;;9.20;99.90;;;;;;4826954;29;20490;-86
2022/06/02 00:59:34;;;;;;;9.57;8.13;;;9.20;99.90;;;;;;4856650;29;20050;-86
2022/06/02 01:02:00;;;;;;;11.25;8.90;;;9.20;99.90;;;;;;4773651;29;20042;-86
2022/06/02 01:04:27;;;;;;;13.85;12.35;;;9.10;99.90;;;;;;4802519;29;20057;-86
2022/06/02 01:07:07;;;;;;;10.40;9.23;;;9.10;99.90;;;;;;4795856;29;20046;-86
2022/06/02 01:09:36;;;;;;;10.23;8.80;;;9.10;99.90;;;;;;4826105;29;20045;-85
2022/06/02 01:12:20;;;;;;;15.73;13.40;;;9.00;99.90;;;;;;4816132;29;20134;-85
2022/06/02 01:15:11;;;;;;;15.13;13.15;;;9.00;99.90;;;;;;4825334;29;20129;-85
2022/06/02 01:17:51;;;;;;;15.20;13.43;;;9.00;99.90;;;;;;4839711;29;20052;-85
2022/06/02 01:20:35;;;;;;;12.63;11.32;;;9.00;99.90;;;;;;4831523;29;20042;-85
2022/06/02 01:23:36;;;;;;;13.52;12.13;;;8.90;99.90;;;;;;4826004;29;20041;-85
2022/06/02 01:26:01;;;;;;;11.10;9.90;;;8.90;99.90;;;;;;4805962;29;20106;-85
2022/06/02 01:28:49;;;;;;;15.10;13.50;;;8.90;99.90;;;;;;4820532;29;20118;-85
2022/06/02 01:31:26;;;;;;;14.52;11.77;;;8.90;99.90;;;;;;4836950;29;20506;-85
2022/06/02 01:33:58;;;;;;;13.63;12.05;;;8.80;99.90;;;;;;4810089;29;20046;-85
2022/06/02 01:37:02;;;;;;;13.27;11.52;;;8.80;99.90;;;;;;4840916;29;20042;-85
2022/06/02 01:39:31;;;;;;;12.25;10.18;;;8.80;99.90;;;;;;4803712;29;20050;-85
2022/06/02 01:42:06;;;;;;;15.07;12.10;;;8.80;99.90;;;;;;4825635;29;20502;-85
2022/06/02 01:44:56;;;;;;;11.32;10.10;;;8.90;99.90;;;;;;4810246;29;20042;-85
2022/06/02 01:47:40;;;;;;;18.38;15.88;;;8.80;99.90;;;;;;4845495;29;20104;-85
2022/06/02 01:50:26;;;;;;;13.57;12.15;;;8.70;99.90;;;;;;4826179;29;20180;-85
2022/06/02 01:53:43;;;;;;;17.83;15.20;;;8.60;99.90;;;;;;4824519;29;20046;-85
2022/06/02 01:56:25;;;;;;;13.10;11.15;;;8.50;99.90;;;;;;4782656;29;20055;-85
2022/06/02 01:59:28;;;;;;;13.90;12.15;;;8.50;99.90;;;;;;4831195;29;20410;-85
2022/06/02 02:02:11;;;;;;;10.77;9.48;;;8.50;99.90;;;;;;4833354;29;20049;-85
2022/06/02 02:04:59;;;;;;;11.13;9.93;;;8.50;99.90;;;;;;4837473;29;20073;-85
2022/06/02 02:07:54;;;;;;;11.75;9.63;;;8.50;99.90;;;;;;4837946;29;20419;-85
2022/06/02 02:10:57;;;;;;;10.93;8.85;;;8.50;99.90;;;;;;4838217;29;20057;-85
2022/06/02 02:14:00;;;;;;;11.98;9.63;;;8.50;99.90;;;;;;4842822;29;20411;-85
2022/06/02 02:16:40;;;;;;;11.23;8.93;;;8.50;99.90;;;;;;4848043;29;20495;-85
2022/06/02 02:19:29;;;;;;;10.68;8.52;;;8.40;99.90;;;;;;4821311;29;20047;-85
2022/06/02 02:22:13;;;;;;;10.13;8.73;;;8.40;99.90;;;;;;4812414;29;20052;-85
2022/06/02 02:24:54;;;;;;;11.73;9.18;;;8.50;99.90;;;;;;4807409;29;20091;-85
2022/06/02 02:27:28;;;;;;;10.63;9.40;;;8.40;99.90;;;;;;4838308;29;20046;-85
2022/06/02 02:30:06;;;;;;;10.90;9.07;;;8.40;99.90;;;;;;4837485;29;20110;-85
2022/06/02 02:32:55;;;;;;;9.38;8.38;;;8.40;99.90;;;;;;4847436;29;20046;-85
2022/06/02 02:35:43;;;;;;;16.30;13.80;;;8.40;99.90;;;;;;4822633;29;20081;-85
2022/06/02 02:38:25;;;;;;;12.30;10.95;;;8.30;99.90;;;;;;4824291;29;20043;-85
2022/06/02 02:41:01;;;;;;;10.70;9.50;;;8.30;99.90;;;;;;4831970;29;20049;-85
2022/06/02 02:43:52;;;;;;;12.98;11.57;;;8.20;99.90;;;;;;4844367;29;20052;-85
2022/06/02 02:46:33;;;;;;;21.73;17.55;;;8.20;99.90;;;;;;4810302;29;20042;-85
2022/06/02 02:49:03;;;;;;;16.83;15.00;;;8.10;99.90;;;;;;4809166;29;20046;-85
2022/06/02 02:51:38;;;;;;;11.95;10.60;;;8.00;99.90;;;;;;4825212;29;20050;-85
2022/06/02 02:54:23;;;;;;;10.38;8.93;;;8.00;99.90;;;;;;4810288;29;20046;-85
2022/06/02 02:56:58;;;;;;;13.93;12.40;;;8.00;99.90;;;;;;4825484;29;20145;-85
2022/06/02 02:59:41;;;;;;;11.73;10.35;;;8.00;99.90;;;;;;4841116;29;20464;-85
2022/06/02 03:02:28;;;;;;;12.32;10.45;;;8.00;99.90;;;;;;4828731;29;20125;-85
2022/06/02 03:05:14;;;;;;;13.90;12.40;;;8.00;99.90;;;;;;4809803;29;20073;-85
2022/06/02 03:07:40;;;;;;;17.40;14.82;;;8.00;99.90;;;;;;4831136;29;20050;-85
2022/06/02 03:10:26;;;;;;;11.85;10.02;;;8.00;99.90;;;;;;4821330;29;20055;-85
2022/06/02 03:13:04;;;;;;;12.35;10.98;;;8.00;99.90;;;;;;4809942;29;20058;-85
2022/06/02 03:15:38;;;;;;;12.75;10.20;;;8.00;99.90;;;;;;4855948;29;20487;-85
2022/06/02 03:18:24;;;;;;;13.13;11.20;;;7.90;99.90;;;;;;4839692;29;20042;-85
2022/06/02 03:21:08;;;;;;;13.43;10.98;;;7.90;99.90;;;;;;4792137;29;20042;-85
2022/06/02 03:24:02;;;;;;;22.33;17.85;;;7.80;99.90;;;;;;4833377;29;20047;-85
2022/06/02 03:26:46;;;;;;;13.57;10.25;;;7.90;99.90;;;;;;4815457;29;20483;-85
2022/06/02 03:29:25;;;;;;;11.57;9.13;;;7.90;99.90;;;;;;4839435;29;20049;-85
2022/06/02 03:31:54;;;;;;;11.05;9.43;;;7.90;99.90;;;;;;4855216;29;20050;-85
2022/06/02 03:34:58;;;;;;;11.15;9.63;;;8.00;99.90;;;;;;4839246;29;20034;-85
2022/06/02 03:37:48;;;;;;;12.20;9.55;;;8.00;99.90;;;;;;4788963;29;20054;-85
2022/06/02 03:40:29;;;;;;;12.05;9.38;;;8.00;99.90;;;;;;4839971;29;20038;-85
2022/06/02 03:43:08;;;;;;;12.68;11.00;;;8.00;99.90;;;;;;4827073;29;20050;-85
2022/06/02 03:46:02;;;;;;;14.63;13.00;;;8.00;99.90;;;;;;4840058;29;20047;-85
2022/06/02 03:49:03;;;;;;;14.02;11.63;;;7.90;99.90;;;;;;4838246;29;20259;-85
2022/06/02 03:51:47;;;;;;;14.05;12.15;;;7.90;99.90;;;;;;4840044;29;20074;-85
2022/06/02 03:54:31;;;;;;;12.90;11.02;;;7.80;99.90;;;;;;4839921;29;20049;-85
2022/06/02 03:57:17;;;;;;;11.57;10.38;;;7.90;99.90;;;;;;4809132;29;20046;-85
2022/06/02 04:00:12;;;;;;;14.15;12.05;;;7.90;99.90;;;;;;4838703;29;20046;-85
2022/06/02 04:02:50;;;;;;;18.15;16.05;;;7.90;99.90;;;;;;4804847;29;20046;-85
2022/06/02 04:05:47;;;;;;;13.55;11.68;;;7.90;99.90;;;;;;4824401;29;20398;-85
2022/06/02 04:08:23;;;;;;;15.48;12.52;;;7.80;99.90;;;;;;4822525;29;20103;-85
2022/06/02 04:10:59;;;;;;;13.73;11.38;;;7.80;99.90;;;;;;4859837;29;20053;-85
2022/06/02 04:13:49;;;;;;;17.83;15.93;;;7.90;99.90;;;;;;4855241;29;20081;-85
2022/06/02 04:16:37;;;;;;;16.17;13.57;;;7.90;99.90;;;;;;4820195;29;20060;-85
2022/06/02 04:22:34;;;;;;;18.30;15.77;;;7.90;99.90;;;;;;4845368;29;20061;-85
2022/06/02 04:25:21;;;;;;;26.17;21.10;;;7.90;99.90;;;;;;4852205;29;20137;-84
2022/06/02 04:28:00;;;;;;;20.20;17.25;;;7.90;99.90;;;;;;4830050;29;20513;-84
2022/06/02 04:30:53;;;;;;;16.67;13.80;;;7.90;99.90;;;;;;4840087;29;20042;-84
2022/06/02 04:33:28;;;;;;;17.52;14.95;;;7.90;99.90;;;;;;4844229;29;20038;-85
2022/06/02 04:36:22;;;;;;;19.65;17.17;;;8.00;99.90;;;;;;4822150;29;20047;-85
2022/06/02 04:39:00;;;;;;;25.25;20.45;;;8.10;99.90;;;;;;4811017;29;20042;-85
2022/06/02 04:41:55;;;;;;;27.15;21.85;;;8.10;99.90;;;;;;4823370;29;20041;-85
2022/06/02 04:44:47;;;;;;;26.23;21.88;;;8.20;99.90;;;;;;4848818;29;20638;-85
2022/06/02 04:47:31;;;;;;;23.35;18.35;;;8.30;99.90;;;;;;4809015;29;20050;-85
2022/06/02 04:50:08;;;;;;;26.75;21.38;;;8.40;99.90;;;;;;4830494;29;20047;-85
2022/06/02 04:52:36;;;;;;;26.88;22.13;;;8.50;99.90;;;;;;4845792;29;20051;-85
2022/06/02 04:55:25;;;;;;;23.98;21.00;;;8.90;99.90;;;;;;4836780;29;20081;-85
2022/06/02 04:58:18;;;;;;;24.33;21.50;;;9.50;99.90;;;;;;4806504;29;20123;-85
2022/06/02 05:01:03;;;;;;;24.60;22.00;;;10.40;99.90;;;;;;4823952;29;20132;-85
2022/06/02 05:03:41;;;;;;;21.67;17.95;;;11.90;99.90;;;;;;4821619;29;20050;-85
2022/06/02 05:06:21;;;;;;;16.38;14.57;;;13.10;99.90;;;;;;4818306;29;20407;-85
2022/06/02 05:09:19;;;;;;;13.75;12.25;;;13.90;99.90;;;;;;4848019;29;20042;-85
2022/06/02 05:11:44;;;;;;;13.60;11.15;;;14.40;99.90;;;;;;4826623;29;20050;-84
2022/06/02 05:14:31;;;;;;;12.30;10.32;;;15.40;99.90;;;;;;4834636;29;20383;-85
2022/06/02 05:17:21;;;;;;;12.75;10.82;;;16.20;99.90;;;;;;4850907;29;20046;-85
2022/06/02 05:20:15;;;;;;;11.30;10.00;;;16.30;99.90;;;;;;4824932;29;20061;-85
2022/06/02 05:23:08;;;;;;;11.45;9.73;;;16.60;99.90;;;;;;4820633;29;20046;-86
2022/06/02 05:26:20;;;;;;;12.50;9.65;;;16.90;99.90;;;;;;4810615;29;20064;-85
2022/06/02 05:29:31;;;;;;;9.55;8.25;;;17.10;99.90;;;;;;4811658;29;20517;-85
2022/06/02 05:32:18;;;;;;;10.68;8.40;;;17.20;99.90;;;;;;4823825;29;20576;-85
2022/06/02 05:35:15;;;;;;;10.90;8.82;;;17.40;99.90;;;;;;4835992;29;20137;-85
2022/06/02 05:38:05;;;;;;;10.10;8.07;;;17.60;99.90;;;;;;4830882;29;20039;-86
2022/06/02 05:40:41;;;;;;;11.68;7.72;;;17.90;99.90;;;;;;4850204;29;20043;-86
2022/06/02 05:43:15;;;;;;;9.35;7.97;;;18.40;99.90;;;;;;4828251;29;20502;-86
2022/06/02 05:45:58;;;;;;;9.77;7.43;;;18.90;99.80;;;;;;4830921;29;20046;-86
2022/06/02 05:48:42;;;;;;;8.77;7.03;;;18.90;99.80;;;;;;4811102;29;20508;-86
2022/06/02 05:51:30;;;;;;;9.02;6.80;;;19.70;97.10;;;;;;4825853;29;20391;-86
2022/06/02 05:54:14;;;;;;;9.52;6.20;;;20.00;97.20;;;;;;4861403;29;20053;-86
2022/06/02 05:57:04;;;;;;;8.70;6.35;;;19.80;97.60;;;;;;4825446;29;20119;-87
2022/06/02 05:59:48;;;;;;;9.27;5.97;;;19.50;96.90;;;;;;4819372;29;20078;-87
2022/06/02 06:02:33;;;;;;;8.85;6.07;;;20.40;92.40;;;;;;4828682;29;20126;-86
2022/06/02 06:05:43;;;;;;;7.85;6.15;;;20.70;93.50;;;;;;4855657;29;20046;-86
2022/06/02 06:08:20;;;;;;;8.80;5.72;;;20.80;87.90;;;;;;4809992;29;20077;-86
2022/06/02 06:11:31;;;;;;;8.95;6.10;;;21.50;87.20;;;;;;4840461;29;20056;-86
2022/06/02 06:14:22;;;;;;;7.35;4.90;;;21.00;78.80;;;;;;4807622;29;20050;-86
2022/06/02 06:17:07;;;;;;;6.63;5.00;;;20.80;89.40;;;;;;4809976;29;20047;-86
2022/06/02 06:19:42;;;;;;;11.20;5.97;;;20.50;91.70;;;;;;4847822;29;20130;-86
2022/06/02 06:22:22;;;;;;;6.80;4.78;;;20.50;90.30;;;;;;4867109;29;20052;-86
2022/06/02 06:25:00;;;;;;;7.57;4.75;;;20.00;92.90;;;;;;4839960;29;20069;-86
2022/06/02 06:27:50;;;;;;;7.53;4.72;;;20.10;92.90;;;;;;4824221;29;20230;-87
2022/06/02 06:30:28;;;;;;;10.50;5.50;;;19.90;93.60;;;;;;4819142;29;20086;-87
2022/06/02 06:33:15;;;;;;;9.70;4.82;;;19.70;90.90;;;;;;4819208;29;20484;-87
2022/06/02 06:35:59;;;;;;;7.55;4.50;;;19.90;90.70;;;;;;4808042;29;20038;-86
2022/06/02 06:38:37;;;;;;;8.52;4.80;;;20.20;94.30;;;;;;4858693;29;20509;-87
2022/06/02 06:41:28;;;;;;;7.68;4.20;;;21.00;90.50;;;;;;4827832;29;20057;-87
2022/06/02 06:44:25;;;;;;;7.18;3.88;;;21.40;83.30;;;;;;4858440;29;20046;-86
2022/06/02 06:47:29;;;;;;;6.13;3.90;;;20.90;84.10;;;;;;4827264;29;20480;-86
2022/06/02 06:50:10;;;;;;;6.22;3.50;;;21.40;79.20;;;;;;4815496;29;20084;-87
2022/06/02 06:53:06;;;;;;;7.43;4.13;;;21.10;80.30;;;;;;4823291;29;20150;-87
2022/06/02 06:55:39;;;;;;;6.20;3.53;;;21.70;76.40;;;;;;4826090;29;20058;-87
2022/06/02 06:58:42;;;;;;;6.82;3.45;;;21.70;79.50;;;;;;4807534;29;20566;-87
2022/06/02 07:01:39;;;;;;;7.20;2.88;;;21.40;75.00;;;;;;4837591;29;20084;-87
2022/06/02 07:04:34;;;;;;;5.20;3.17;;;21.00;82.50;;;;;;4850529;29;20052;-87
2022/06/02 07:07:15;;;;;;;5.68;2.90;;;21.00;79.60;;;;;;4838420;29;20034;-87
2022/06/02 07:10:01;;;;;;;4.80;2.50;;;20.80;79.30;;;;;;4816612;29;20046;-87
2022/06/02 07:12:51;;;;;;;5.80;2.80;;;20.90;81.00;;;;;;4827971;29;20283;-88
2022/06/02 07:15:51;;;;;;;5.47;2.53;;;20.80;80.80;;;;;;4812241;29;20134;-87
2022/06/02 07:18:41;;;;;;;6.18;2.70;;;19.90;83.10;;;;;;4808342;29;20095;-87
2022/06/02 07:21:15;;;;;;;4.85;2.10;;;19.20;82.10;;;;;;4828766;29;20529;-87
2022/06/02 07:24:03;;;;;;;5.13;2.50;;;19.20;91.30;;;;;;4829012;29;20045;-87
2022/06/02 07:26:57;;;;;;;6.32;2.00;;;19.00;90.00;;;;;;4841719;29;20050;-87
2022/06/02 07:29:23;;;;;;;5.18;2.20;;;19.40;90.60;;;;;;4865105;29;20042;-87
2022/06/02 07:31:57;;;;;;;5.03;2.10;;;19.80;90.60;;;;;;4850441;29;20051;-87
2022/06/02 07:34:23;;;;;;;4.90;1.70;;;19.40;89.50;;;;;;4787332;29;20068;-87
2022/06/02 07:37:12;;;;;;;4.90;1.98;;;19.00;90.40;;;;;;4841085;29;20042;-87
2022/06/02 07:40:13;;;;;;;5.63;1.80;;;18.80;90.50;;;;;;4851527;29;20045;-87
2022/06/02 07:42:56;;;;;;;4.00;1.67;;;19.00;88.90;;;;;;4802662;29;20450;-87
2022/06/02 07:45:25;;;;;;;5.35;2.00;;;19.40;86.60;;;;;;4825824;29;20490;-87
2022/06/02 07:48:41;;;;;;;4.28;2.00;;;19.40;88.70;;;;;;4854155;29;20384;-87
2022/06/02 07:51:38;;;;;;;5.63;1.80;;;19.30;89.30;;;;;;4776307;29;20056;-87
2022/06/02 07:54:15;;;;;;;5.00;1.90;;;19.20;89.90;;;;;;4802729;29;20051;-87
2022/06/02 07:57:04;;;;;;;5.53;2.00;;;19.80;89.40;;;;;;4813637;29;20050;-87
2022/06/02 07:59:48;;;;;;;3.70;1.50;;;19.90;88.30;;;;;;4808994;29;20335;-87
2022/06/02 08:02:45;;;;;;;4.45;1.38;;;19.70;84.70;;;;;;4811547;29;20050;-87
2022/06/02 08:05:44;;;;;;;4.18;1.40;;;19.10;88.70;;;;;;4839451;29;20038;-87
2022/06/02 08:08:34;;;;;;;5.38;1.40;;;18.90;81.60;;;;;;4811675;29;20049;-87
2022/06/02 08:11:03;;;;;;;4.97;1.63;;;18.40;88.10;;;;;;4808865;29;20099;-87
2022/06/02 08:13:38;;;;;;;3.65;1.40;;;18.70;90.60;;;;;;4823481;29;20054;-87
2022/06/02 08:16:16;;;;;;;3.33;1.30;;;19.30;88.40;;;;;;4815526;29;20039;-88
2022/06/02 08:19:17;;;;;;;3.70;1.40;;;19.80;88.20;;;;;;4825500;29;20039;-87
2022/06/02 08:21:53;;;;;;;3.05;1.30;;;19.80;79.00;;;;;;4805629;29;20050;-87
2022/06/02 08:24:34;;;;;;;4.10;1.50;;;19.70;81.10;;;;;;4815389;29;20050;-87
2022/06/02 08:27:32;;;;;;;4.57;1.40;;;19.60;80.50;;;;;;4814520;29;20046;-87
2022/06/02 08:30:20;;;;;;;4.32;1.50;;;19.50;77.40;;;;;;4801784;29;20073;-87
2022/06/02 08:32:59;;;;;;;3.20;1.30;;;19.40;79.50;;;;;;4821941;29;20046;-87
2022/06/02 08:35:45;;;;;;;4.35;1.40;;;19.00;78.80;;;;;;4835714;29;20495;-87
2022/06/02 08:38:45;;;;;;;4.25;1.48;;;18.80;81.50;;;;;;4809143;29;20398;-87
2022/06/02 08:41:30;;;;;;;4.50;1.60;;;19.10;88.80;;;;;;4822267;29;20483;-87
2022/06/02 08:44:02;;;;;;;5.35;1.67;;;19.30;87.20;;;;;;4839345;29;20498;-87
2022/06/02 08:46:49;;;;;;;4.97;1.52;;;19.70;86.70;;;;;;4833174;29;20049;-87
2022/06/02 08:49:33;;;;;;;4.22;1.50;;;19.90;87.00;;;;;;4833958;29;20082;-87
2022/06/02 08:52:22;;;;;;;4.15;1.60;;;19.80;81.10;;;;;;4838936;29;20081;-87
2022/06/02 08:55:09;;;;;;;4.05;1.40;;;19.50;88.70;;;;;;4787222;29;20118;-87
2022/06/02 08:58:06;;;;;;;5.15;1.80;;;19.80;88.60;;;;;;4817809;29;20487;-87
2022/06/02 09:00:53;;;;;;;5.47;1.90;;;20.00;80.80;;;;;;4843782;29;20141;-87
2022/06/02 09:04:01;;;;;;;4.00;1.70;;;19.50;72.20;;;;;;4810661;29;20462;-87
2022/06/02 09:06:50;;;;;;;4.00;1.48;;;19.40;80.30;;;;;;4818270;29;20046;-87
2022/06/02 09:09:53;;;;;;;5.43;1.88;;;19.20;81.80;;;;;;4818238;29;20045;-87
2022/06/02 09:12:50;;;;;;;6.53;2.00;;;19.90;90.80;;;;;;4826938;29;20380;-87
2022/06/02 09:15:39;;;;;;;5.55;1.60;;;20.30;87.30;;;;;;4837476;29;20043;-87
2022/06/02 09:18:18;;;;;;;4.40;1.80;;;20.10;78.60;;;;;;4826413;29;20046;-87
2022/06/02 09:20:46;;;;;;;4.10;1.60;;;19.60;73.70;;;;;;4807891;29;20042;-87
2022/06/02 09:23:15;;;;;;;4.10;1.85;;;19.30;83.10;;;;;;4811738;29;20070;-87
2022/06/02 09:26:14;;;;;;;4.55;1.60;;;19.10;82.90;;;;;;4821433;29;20074;-87
2022/06/02 09:29:18;;;;;;;4.13;1.70;;;19.30;92.30;;;;;;4824357;29;20078;-87
2022/06/02 09:31:55;;;;;;;3.78;1.77;;;19.80;79.60;;;;;;4800363;29;20050;-87
2022/06/02 09:34:29;;;;;;;4.80;1.70;;;20.10;80.90;;;;;;4835510;29;20085;-87
2022/06/02 09:37:13;;;;;;;4.57;1.58;;;20.10;72.00;;;;;;4832615;29;20050;-87
2022/06/02 09:39:52;;;;;;;4.40;1.70;;;20.00;78.90;;;;;;4813650;29;20050;-87
2022/06/02 09:42:43;;;;;;;4.10;1.70;;;20.20;75.70;;;;;;4848126;29;20043;-86
2022/06/02 09:45:42;;;;;;;5.47;1.90;;;20.40;76.90;;;;;;4828882;29;20054;-87
2022/06/02 09:48:17;;;;;;;4.30;1.92;;;20.80;81.60;;;;;;4844148;29;20054;-86
2022/06/02 09:51:10;;;;;;;4.47;1.60;;;20.80;76.40;;;;;;4857185;29;20092;-86
2022/06/02 09:54:05;;;;;;;3.67;1.70;;;20.30;73.90;;;;;;4808342;29;20053;-86
2022/06/02 09:56:52;;;;;;;3.63;1.67;;;20.40;68.60;;;;;;4855389;29;20058;-86
2022/06/02 09:59:36;;;;;;;4.00;1.77;;;20.30;74.00;;;;;;4826049;29;20047;-86
2022/06/02 10:02:22;;;;;;;4.90;1.80;;;20.60;78.30;;;;;;4856491;29;20042;-86
2022/06/02 10:04:54;;;;;;;4.05;1.73;;;20.70;79.00;;;;;;4824828;29;20054;-86
2022/06/02 10:07:49;;;;;;;4.82;2.10;;;20.60;79.20;;;;;;4842850;29;20426;-86
2022/06/02 10:10:26;;;;;;;4.68;2.08;;;20.20;76.80;;;;;;4826071;29;20054;-86
2022/06/02 10:13:19;;;;;;;4.88;1.90;;;20.10;81.60;;;;;;4826109;29;20050;-86
2022/06/02 10:16:03;;;;;;;3.72;1.70;;;20.20;86.20;;;;;;4840883;29;20544;-86
2022/06/02 10:18:32;;;;;;;3.80;1.60;;;20.50;80.40;;;;;;4835763;29;20050;-86
2022/06/02 10:21:12;;;;;;;4.28;1.88;;;20.70;76.90;;;;;;4826588;29;20046;-86
2022/06/02 10:23:56;;;;;;;4.95;2.08;;;20.90;75.00;;;;;;4825591;29;20128;-86
2022/06/02 10:26:37;;;;;;;5.53;2.05;;;21.00;72.70;;;;;;4841620;29;20115;-86
2022/06/02 10:29:03;;;;;;;4.67;1.70;;;21.30;74.30;;;;;;4810667;29;20046;-86
2022/06/02 10:32:07;;;;;;;5.32;2.00;;;21.60;74.60;;;;;;4842508;29;20054;-86
2022/06/02 10:34:51;;;;;;;4.75;2.10;;;21.20;69.10;;;;;;4844889;29;20042;-86
2022/06/02 10:37:36;;;;;;;5.32;1.80;;;20.40;71.80;;;;;;4826202;29;20046;-86
2022/06/02 10:40:42;;;;;;;4.22;1.85;;;19.90;74.70;;;;;;4841572;29;20403;-86
2022/06/02 10:43:44;;;;;;;5.63;1.90;;;19.70;80.00;;;;;;4815959;29;20403;-86
2022/06/02 10:46:10;;;;;;;4.30;1.70;;;19.50;78.50;;;;;;4809126;29;20065;-86
2022/06/02 10:48:54;;;;;;;4.47;1.75;;;19.80;84.40;;;;;;4821143;29;20077;-86
2022/06/02 10:51:54;;;;;;;4.18;1.55;;;19.90;78.40;;;;;;4852746;29;20046;-86
2022/06/02 10:55:04;;;;;;;4.22;1.63;;;20.40;78.80;;;;;;4820458;29;20046;-86
2022/06/02 10:57:57;;;;;;;4.88;1.80;;;20.50;75.40;;;;;;4824039;29;20043;-86
2022/06/02 11:01:01;;;;;;;5.75;1.80;;;20.20;76.60;;;;;;4814871;29;20046;-86
2022/06/02 11:03:41;;;;;;;4.25;1.50;;;20.10;74.00;;;;;;4792864;29;20066;-86
2022/06/02 11:06:34;;;;;;;5.20;1.83;;;20.10;76.30;;;;;;4838463;29;20046;-85
2022/06/02 11:09:28;;;;;;;5.28;1.90;;;20.20;83.00;;;;;;4839578;29;20050;-85
2022/06/02 11:12:33;;;;;;;3.80;1.70;;;20.40;89.10;;;;;;4849908;29;20506;-85
2022/06/02 11:15:26;;;;;;;5.28;1.77;;;20.90;83.60;;;;;;4791693;29;20163;-85
2022/06/02 11:18:20;;;;;;;3.97;1.50;;;21.40;74.60;;;;;;4850480;29;20056;-85
2022/06/02 11:21:07;;;;;;;3.55;1.45;;;21.60;74.30;;;;;;4809923;29;20498;-85
2022/06/02 11:23:40;;;;;;;4.38;1.40;;;21.80;72.20;;;;;;4847179;29;20053;-85
2022/06/02 11:26:15;;;;;;;2.70;1.30;;;22.00;73.10;;;;;;4837264;29;20495;-85
2022/06/02 11:29:15;;;;;;;5.00;1.70;;;22.20;68.10;;;;;;4809176;29;20059;-84
2022/06/02 11:32:09;;;;;;;3.67;1.50;;;21.50;67.20;;;;;;4836446;29;20069;-84
2022/06/02 11:35:00;;;;;;;5.45;1.73;;;21.60;68.00;;;;;;4810692;29;20034;-85
2022/06/02 11:37:40;;;;;;;3.47;1.40;;;21.60;66.10;;;;;;4821442;29;20042;-85
2022/06/02 11:40:43;;;;;;;4.47;1.40;;;21.90;68.00;;;;;;4837186;29;20038;-84
2022/06/02 11:43:15;;;;;;;3.83;1.40;;;22.20;66.50;;;;;;4816902;29;20043;-84
2022/06/02 11:45:43;;;;;;;3.25;1.40;;;22.40;65.40;;;;;;4844779;29;21204;-84
2022/06/02 11:48:23;;;;;;;3.58;1.20;;;22.60;63.00;;;;;;4858800;29;20038;-84
2022/06/02 11:50:58;;;;;;;5.32;1.42;;;22.80;63.60;;;;;;4839522;29;20502;-84
2022/06/02 11:53:32;;;;;;;5.85;1.50;;;22.30;60.50;;;;;;4852338;29;20046;-84
2022/06/02 11:56:45;;;;;;;3.78;1.50;;;21.60;63.50;;;;;;4844646;29;20054;-84
2022/06/02 11:59:43;;;;;;;4.28;1.50;;;20.80;66.20;;;;;;4845420;29;20469;-84
2022/06/02 12:02:44;;;;;;;3.85;1.40;;;20.40;70.50;;;;;;4802153;29;20038;-84
2022/06/02 12:05:34;;;;;;;4.18;1.50;;;20.10;70.00;;;;;;4807678;29;20084;-84
2022/06/02 12:08:21;;;;;;;5.25;1.50;;;19.90;70.40;;;;;;4819995;29;20045;-84
2022/06/02 12:11:22;;;;;;;3.42;1.23;;;20.00;65.80;;;;;;4827038;29;20575;-84
2022/06/02 12:13:53;;;;;;;3.17;1.20;;;20.10;74.10;;;;;;4817173;29;20518;-84
2022/06/02 12:16:31;;;;;;;3.33;1.20;;;20.60;72.30;;;;;;4815513;29;20095;-84
2022/06/02 12:19:27;;;;;;;3.65;1.20;;;20.90;67.50;;;;;;4814333;29;20110;-84
2022/06/02 12:22:36;;;;;;;3.78;1.50;;;21.00;63.10;;;;;;4821973;29;20125;-84
2022/06/02 12:25:04;;;;;;;3.67;1.33;;;20.50;61.50;;;;;;4768690;29;20121;-84
2022/06/02 12:27:57;;;;;;;3.78;1.35;;;20.80;66.30;;;;;;4844495;29;20137;-84
2022/06/02 12:30:38;;;;;;;4.75;1.40;;;21.00;63.50;;;;;;4837170;29;20042;-84
2022/06/02 12:33:39;;;;;;;4.60;1.30;;;20.80;65.10;;;;;;4852570;29;20054;-84
2022/06/02 12:36:46;;;;;;;3.25;1.23;;;20.40;68.70;;;;;;4819390;29;20053;-84
2022/06/02 12:39:42;;;;;;;3.92;1.30;;;20.00;70.10;;;;;;4819421;29;20225;-84
2022/06/02 12:42:46;;;;;;;4.03;1.52;;;19.70;72.30;;;;;;4818595;29;20038;-84
2022/06/02 12:45:20;;;;;;;4.18;1.40;;;19.60;72.60;;;;;;4828533;29;20403;-84
2022/06/02 12:48:23;;;;;;;3.88;1.30;;;19.90;79.40;;;;;;4814675;29;20054;-85
2022/06/02 12:51:19;;;;;;;4.00;1.30;;;20.40;72.70;;;;;;4817256;29;20089;-84
2022/06/02 12:54:30;;;;;;;2.95;1.10;;;20.60;68.00;;;;;;4845392;29;20059;-84
2022/06/02 12:57:38;;;;;;;4.85;1.40;;;21.10;69.20;;;;;;4784021;29;20090;-84
2022/06/02 13:00:18;;;;;;;2.40;1.10;;;21.40;71.30;;;;;;4816288;29;20048;-85
2022/06/02 13:03:33;;;;;;;3.28;1.20;;;21.60;66.70;;;;;;4802641;29;20043;-84
2022/06/02 13:06:21;;;;;;;3.78;1.40;;;21.90;74.20;;;;;;4803482;29;20050;-84
2022/06/02 13:09:22;;;;;;;2.67;1.10;;;22.10;64.60;;;;;;4800870;29;20046;-84
2022/06/02 13:12:01;;;;;;;3.55;1.20;;;22.10;61.80;;;;;;4820526;29;20042;-84
2022/06/02 13:14:46;;;;;;;4.05;1.30;;;21.90;60.80;;;;;;4815955;29;20502;-84
2022/06/02 13:17:37;;;;;;;3.63;1.30;;;21.70;60.60;;;;;;4847099;29;20221;-84
2022/06/02 13:20:19;;;;;;;3.10;1.20;;;21.90;63.00;;;;;;4815656;29;20521;-84
2022/06/02 13:23:00;;;;;;;3.67;1.20;;;21.90;61.90;;;;;;4805731;29;20179;-84
2022/06/02 13:25:32;;;;;;;3.75;1.13;;;21.90;59.20;;;;;;4828663;29;20049;-84
2022/06/02 13:28:25;;;;;;;3.53;1.27;;;21.80;60.20;;;;;;4852749;29;20096;-84
2022/06/02 13:31:10;;;;;;;2.85;1.00;;;22.20;60.90;;;;;;4819598;29;20053;-84
2022/06/02 13:33:52;;;;;;;3.22;1.30;;;22.10;54.40;;;;;;4816457;29;20050;-84
2022/06/02 13:36:32;;;;;;;;;;;21.90;61.00;;;;;;4834669;29;20091;-84
2022/06/02 13:39:16;;;;;;;4.30;1.40;;;21.40;62.80;;;;;;4804141;29;19935;-85
2022/06/02 13:41:44;;;;;;;4.13;1.30;;;21.30;67.10;;;;;;4818938;29;20039;-84
2022/06/02 13:44:39;;;;;;;2.67;1.20;;;21.40;68.00;;;;;;4820531;29;20111;-84
2022/06/02 13:47:56;;;;;;;3.45;1.40;;;21.30;66.60;;;;;;4818797;29;20396;-83
2022/06/02 13:50:36;;;;;;;4.90;1.40;;;20.70;66.40;;;;;;4788480;29;20050;-84
2022/06/02 13:53:08;;;;;;;4.43;1.30;;;20.60;67.90;;;;;;4836046;29;20583;-85
2022/06/02 13:59:29;;;;;;;4.50;1.58;;;20.50;66.70;;;;;;4845035;29;20050;-83
2022/06/02 14:02:33;;;;;;;4.32;1.48;;;20.40;65.70;;;;;;4847995;29;20046;-84
2022/06/02 14:05:17;;;;;;;3.05;1.30;;;20.20;69.40;;;;;;4820819;29;20150;-84
2022/06/02 14:08:05;;;;;;;4.13;1.50;;;20.10;68.40;;;;;;4822703;29;20050;-84
2022/06/02 14:10:54;;;;;;;3.75;1.20;;;19.90;68.00;;;;;;4820346;29;20047;-85
2022/06/02 14:13:38;;;;;;;4.78;1.60;;;19.80;68.80;;;;;;4806767;29;20418;-84
2022/06/02 14:16:38;;;;;;;3.45;1.50;;;19.90;72.00;;;;;;4821185;29;20117;-84
2022/06/02 14:19:42;;;;;;;3.85;1.40;;;19.80;75.20;;;;;;4818704;29;20073;-84
2022/06/02 14:22:45;;;;;;;4.72;1.77;;;19.90;73.60;;;;;;4836179;29;20046;-83
2022/06/02 14:25:31;;;;;;;3.22;1.20;;;20.10;76.70;;;;;;4821298;29;20391;-83
2022/06/02 14:28:19;;;;;;;8.45;2.00;;;20.10;73.40;;;;;;4805633;29;20134;-84
2022/06/02 14:31:13;;;;;;;4.45;1.33;;;20.20;74.70;;;;;;4821060;29;20046;-84
2022/06/02 14:33:43;;;;;;;5.63;1.50;;;20.20;74.60;;;;;;4834527;29;20685;-85
2022/06/02 14:36:21;;;;;;;5.43;1.90;;;20.10;75.50;;;;;;4855726;29;20046;-85